sensor_id;sensor_type;location;lat;lon;timestamp;temperature;humidity
63017;DHT22;50274;45.640;11.756;2024-01-30T00:02:16;2.70;72.00
63017;DHT22;50274;45.640;11.756;2024-01-30T00:04:42;2.70;71.90
63017;DHT22;50274;45.640;11.756;2024-01-30T00:07:08;2.70;71.90
63017;DHT22;50274;45.640;11.756;2024-01-30T00:09:34;2.70;71.90
63017;DHT22;50274;45.640;11.756;2024-01-30T00:12:00;2.70;71.90
63017;DHT22;50274;45.640;11.756;2024-01-30T00:14:26;2.70;71.90
63017;DHT22;50274;45.640;11.756;2024-01-30T00:16:52;2.60;71.90
63017;DHT22;50274;45.640;11.756;2024-01-30T00:19:18;2.60;71.90
63017;DHT22;50274;45.640;11.756;2024-01-30T00:21:44;2.60;71.90
63017;DHT22;50274;45.640;11.756;2024-01-30T00:24:10;2.50;72.00
63017;DHT22;50274;45.640;11.756;2024-01-30T00:26:35;2.50;72.00
63017;DHT22;50274;45.640;11.756;2024-01-30T00:29:01;2.50;72.00
63017;DHT22;50274;45.640;11.756;2024-01-30T00:31:28;2.40;72.00
63017;DHT22;50274;45.640;11.756;2024-01-30T00:33:53;2.30;72.00
63017;DHT22;50274;45.640;11.756;2024-01-30T00:36:19;2.30;72.20
63017;DHT22;50274;45.640;11.756;2024-01-30T00:38:45;2.20;72.20
63017;DHT22;50274;45.640;11.756;2024-01-30T00:41:11;2.20;72.40
63017;DHT22;50274;45.640;11.756;2024-01-30T00:43:37;2.10;72.50
63017;DHT22;50274;45.640;11.756;2024-01-30T00:46:03;2.20;72.60
63017;DHT22;50274;45.640;11.756;2024-01-30T00:48:29;2.10;72.60
63017;DHT22;50274;45.640;11.756;2024-01-30T00:50:56;2.10;72.60
63017;DHT22;50274;45.640;11.756;2024-01-30T00:53:21;2.20;72.70
63017;DHT22;50274;45.640;11.756;2024-01-30T00:55:47;2.20;72.60
63017;DHT22;50274;45.640;11.756;2024-01-30T00:58:13;2.20;72.50
63017;DHT22;50274;45.640;11.756;2024-01-30T01:00:39;2.20;72.50
63017;DHT22;50274;45.640;11.756;2024-01-30T01:03:05;2.10;72.50
63017;DHT22;50274;45.640;11.756;2024-01-30T01:05:31;2.20;72.40
63017;DHT22;50274;45.640;11.756;2024-01-30T01:07:57;2.10;72.40
63017;DHT22;50274;45.640;11.756;2024-01-30T01:10:23;2.20;72.40
63017;DHT22;50274;45.640;11.756;2024-01-30T01:12:49;2.20;72.40
63017;DHT22;50274;45.640;11.756;2024-01-30T01:15:15;2.20;72.40
63017;DHT22;50274;45.640;11.756;2024-01-30T01:17:41;2.20;72.40
63017;DHT22;50274;45.640;11.756;2024-01-30T01:20:07;2.20;72.40
63017;DHT22;50274;45.640;11.756;2024-01-30T01:22:34;2.20;72.50
63017;DHT22;50274;45.640;11.756;2024-01-30T01:25:00;2.20;72.50
63017;DHT22;50274;45.640;11.756;2024-01-30T01:27:27;2.20;72.40
63017;DHT22;50274;45.640;11.756;2024-01-30T01:29:53;2.20;72.40
63017;DHT22;50274;45.640;11.756;2024-01-30T01:32:19;2.10;72.30
63017;DHT22;50274;45.640;11.756;2024-01-30T01:34:45;2.10;72.30
63017;DHT22;50274;45.640;11.756;2024-01-30T01:37:11;2.10;72.30
63017;DHT22;50274;45.640;11.756;2024-01-30T01:39:37;2.10;72.30
63017;DHT22;50274;45.640;11.756;2024-01-30T01:42:03;2.10;72.20
63017;DHT22;50274;45.640;11.756;2024-01-30T01:44:29;2.10;72.20
63017;DHT22;50274;45.640;11.756;2024-01-30T01:46:56;2.10;72.20
63017;DHT22;50274;45.640;11.756;2024-01-30T01:49:25;2.10;72.10
63017;DHT22;50274;45.640;11.756;2024-01-30T01:51:54;2.10;72.10
63017;DHT22;50274;45.640;11.756;2024-01-30T01:54:22;2.00;72.10
63017;DHT22;50274;45.640;11.756;2024-01-30T01:56:50;2.00;72.10
63017;DHT22;50274;45.640;11.756;2024-01-30T01:59:18;2.00;72.10
63017;DHT22;50274;45.640;11.756;2024-01-30T02:01:44;2.00;72.10
63017;DHT22;50274;45.640;11.756;2024-01-30T02:04:11;1.90;72.10
63017;DHT22;50274;45.640;11.756;2024-01-30T02:06:37;1.90;72.20
63017;DHT22;50274;45.640;11.756;2024-01-30T02:09:04;1.80;72.30
63017;DHT22;50274;45.640;11.756;2024-01-30T02:11:30;1.80;72.30
63017;DHT22;50274;45.640;11.756;2024-01-30T02:13:57;1.70;72.40
63017;DHT22;50274;45.640;11.756;2024-01-30T02:16:23;1.70;72.50
63017;DHT22;50274;45.640;11.756;2024-01-30T02:18:49;1.70;72.60
63017;DHT22;50274;45.640;11.756;2024-01-30T02:21:18;1.70;72.60
63017;DHT22;50274;45.640;11.756;2024-01-30T02:23:46;1.70;72.60
63017;DHT22;50274;45.640;11.756;2024-01-30T02:26:12;1.70;72.60
63017;DHT22;50274;45.640;11.756;2024-01-30T02:28:38;1.70;72.50
63017;DHT22;50274;45.640;11.756;2024-01-30T02:31:05;1.70;72.50
63017;DHT22;50274;45.640;11.756;2024-01-30T02:33:31;1.70;72.50
63017;DHT22;50274;45.640;11.756;2024-01-30T02:35:56;1.70;72.50
63017;DHT22;50274;45.640;11.756;2024-01-30T02:38:22;1.70;72.50
63017;DHT22;50274;45.640;11.756;2024-01-30T02:40:49;1.70;72.40
63017;DHT22;50274;45.640;11.756;2024-01-30T02:43:16;1.70;72.40
63017;DHT22;50274;45.640;11.756;2024-01-30T02:45:42;1.70;72.50
63017;DHT22;50274;45.640;11.756;2024-01-30T02:48:08;1.70;72.50
63017;DHT22;50274;45.640;11.756;2024-01-30T02:50:34;1.60;72.60
63017;DHT22;50274;45.640;11.756;2024-01-30T02:53:00;1.60;72.60
63017;DHT22;50274;45.640;11.756;2024-01-30T02:55:26;1.60;72.60
63017;DHT22;50274;45.640;11.756;2024-01-30T02:57:52;1.60;72.60
63017;DHT22;50274;45.640;11.756;2024-01-30T03:00:19;1.60;72.60
63017;DHT22;50274;45.640;11.756;2024-01-30T03:02:45;1.60;72.60
63017;DHT22;50274;45.640;11.756;2024-01-30T03:05:11;1.60;72.60
63017;DHT22;50274;45.640;11.756;2024-01-30T03:07:37;1.60;72.60
63017;DHT22;50274;45.640;11.756;2024-01-30T03:10:04;1.50;72.60
63017;DHT22;50274;45.640;11.756;2024-01-30T03:12:31;1.60;72.60
63017;DHT22;50274;45.640;11.756;2024-01-30T03:14:57;1.60;72.50
63017;DHT22;50274;45.640;11.756;2024-01-30T03:17:23;1.60;72.50
63017;DHT22;50274;45.640;11.756;2024-01-30T03:19:50;1.60;72.40
63017;DHT22;50274;45.640;11.756;2024-01-30T03:22:16;1.60;72.40
63017;DHT22;50274;45.640;11.756;2024-01-30T03:24:42;1.60;72.40
63017;DHT22;50274;45.640;11.756;2024-01-30T03:27:08;1.50;72.40
63017;DHT22;50274;45.640;11.756;2024-01-30T03:29:34;1.60;72.40
63017;DHT22;50274;45.640;11.756;2024-01-30T03:32:00;1.60;72.30
63017;DHT22;50274;45.640;11.756;2024-01-30T03:34:26;1.50;72.30
63017;DHT22;50274;45.640;11.756;2024-01-30T03:36:52;1.50;72.30
63017;DHT22;50274;45.640;11.756;2024-01-30T03:39:18;1.50;72.30
63017;DHT22;50274;45.640;11.756;2024-01-30T03:41:43;1.50;72.30
63017;DHT22;50274;45.640;11.756;2024-01-30T03:44:10;1.50;72.20
63017;DHT22;50274;45.640;11.756;2024-01-30T03:46:36;1.50;72.30
63017;DHT22;50274;45.640;11.756;2024-01-30T03:49:02;1.50;72.20
63017;DHT22;50274;45.640;11.756;2024-01-30T03:51:28;1.50;72.20
63017;DHT22;50274;45.640;11.756;2024-01-30T03:53:54;1.40;72.20
63017;DHT22;50274;45.640;11.756;2024-01-30T03:56:20;1.30;72.20
63017;DHT22;50274;45.640;11.756;2024-01-30T03:58:46;1.30;72.30
63017;DHT22;50274;45.640;11.756;2024-01-30T04:01:15;1.20;72.40
63017;DHT22;50274;45.640;11.756;2024-01-30T04:03:41;1.20;72.50
63017;DHT22;50274;45.640;11.756;2024-01-30T04:06:08;1.10;72.60
63017;DHT22;50274;45.640;11.756;2024-01-30T04:08:34;1.10;72.70
63017;DHT22;50274;45.640;11.756;2024-01-30T04:11:06;1.10;72.80
63017;DHT22;50274;45.640;11.756;2024-01-30T04:13:32;1.10;72.70
63017;DHT22;50274;45.640;11.756;2024-01-30T04:15:59;1.10;72.70
63017;DHT22;50274;45.640;11.756;2024-01-30T04:18:27;1.10;72.70
63017;DHT22;50274;45.640;11.756;2024-01-30T04:20:53;1.10;72.80
63017;DHT22;50274;45.640;11.756;2024-01-30T04:23:18;1.10;72.70
63017;DHT22;50274;45.640;11.756;2024-01-30T04:25:44;1.10;72.70
63017;DHT22;50274;45.640;11.756;2024-01-30T04:28:10;1.20;72.70
63017;DHT22;50274;45.640;11.756;2024-01-30T04:30:39;1.20;72.70
63017;DHT22;50274;45.640;11.756;2024-01-30T04:33:05;1.20;72.70
63017;DHT22;50274;45.640;11.756;2024-01-30T04:35:31;1.10;72.70
63017;DHT22;50274;45.640;11.756;2024-01-30T04:37:57;1.20;72.70
63017;DHT22;50274;45.640;11.756;2024-01-30T04:40:23;1.10;72.70
63017;DHT22;50274;45.640;11.756;2024-01-30T04:42:49;1.20;72.70
63017;DHT22;50274;45.640;11.756;2024-01-30T04:45:15;1.20;72.70
63017;DHT22;50274;45.640;11.756;2024-01-30T04:47:40;1.10;72.70
63017;DHT22;50274;45.640;11.756;2024-01-30T04:50:07;1.10;72.70
63017;DHT22;50274;45.640;11.756;2024-01-30T04:52:34;1.10;72.70
63017;DHT22;50274;45.640;11.756;2024-01-30T04:55:00;1.10;72.70
63017;DHT22;50274;45.640;11.756;2024-01-30T04:57:25;1.10;72.70
63017;DHT22;50274;45.640;11.756;2024-01-30T04:59:51;1.10;72.70
63017;DHT22;50274;45.640;11.756;2024-01-30T05:02:17;1.10;72.70
63017;DHT22;50274;45.640;11.756;2024-01-30T05:04:43;1.10;72.70
63017;DHT22;50274;45.640;11.756;2024-01-30T05:07:09;1.10;72.70
63017;DHT22;50274;45.640;11.756;2024-01-30T05:09:35;1.10;72.70
63017;DHT22;50274;45.640;11.756;2024-01-30T05:12:00;1.10;72.70
63017;DHT22;50274;45.640;11.756;2024-01-30T05:14:26;1.10;72.70
63017;DHT22;50274;45.640;11.756;2024-01-30T05:16:52;1.10;72.70
63017;DHT22;50274;45.640;11.756;2024-01-30T05:19:18;1.10;72.60
63017;DHT22;50274;45.640;11.756;2024-01-30T05:21:44;1.10;72.70
63017;DHT22;50274;45.640;11.756;2024-01-30T05:24:10;1.10;72.70
63017;DHT22;50274;45.640;11.756;2024-01-30T05:26:36;1.10;72.70
63017;DHT22;50274;45.640;11.756;2024-01-30T05:29:03;1.10;72.70
63017;DHT22;50274;45.640;11.756;2024-01-30T05:31:28;1.10;72.70
63017;DHT22;50274;45.640;11.756;2024-01-30T05:33:55;1.00;72.60
63017;DHT22;50274;45.640;11.756;2024-01-30T05:36:20;1.00;72.70
63017;DHT22;50274;45.640;11.756;2024-01-30T05:38:47;1.00;72.70
63017;DHT22;50274;45.640;11.756;2024-01-30T05:41:13;1.00;72.70
63017;DHT22;50274;45.640;11.756;2024-01-30T05:43:39;1.00;72.80
63017;DHT22;50274;45.640;11.756;2024-01-30T05:46:05;1.00;72.80
63017;DHT22;50274;45.640;11.756;2024-01-30T05:48:31;1.00;72.80
63017;DHT22;50274;45.640;11.756;2024-01-30T05:50:58;1.00;72.80
63017;DHT22;50274;45.640;11.756;2024-01-30T05:53:25;1.00;72.80
63017;DHT22;50274;45.640;11.756;2024-01-30T05:55:51;1.00;72.70
63017;DHT22;50274;45.640;11.756;2024-01-30T05:58:17;1.10;72.70
63017;DHT22;50274;45.640;11.756;2024-01-30T06:00:43;1.00;72.70
63017;DHT22;50274;45.640;11.756;2024-01-30T06:03:08;1.00;72.70
63017;DHT22;50274;45.640;11.756;2024-01-30T06:05:34;1.00;72.70
63017;DHT22;50274;45.640;11.756;2024-01-30T06:08:00;1.00;72.70
63017;DHT22;50274;45.640;11.756;2024-01-30T06:10:26;1.00;72.70
63017;DHT22;50274;45.640;11.756;2024-01-30T06:12:52;1.00;72.70
63017;DHT22;50274;45.640;11.756;2024-01-30T06:15:18;1.00;72.60
63017;DHT22;50274;45.640;11.756;2024-01-30T06:17:43;1.00;72.60
63017;DHT22;50274;45.640;11.756;2024-01-30T06:20:09;1.00;72.70
63017;DHT22;50274;45.640;11.756;2024-01-30T06:22:35;1.00;72.80
63017;DHT22;50274;45.640;11.756;2024-01-30T06:25:01;0.90;72.70
63017;DHT22;50274;45.640;11.756;2024-01-30T06:27:27;1.00;72.70
63017;DHT22;50274;45.640;11.756;2024-01-30T06:29:53;0.90;72.70
63017;DHT22;50274;45.640;11.756;2024-01-30T06:32:19;0.90;72.70
63017;DHT22;50274;45.640;11.756;2024-01-30T06:34:45;0.90;72.70
63017;DHT22;50274;45.640;11.756;2024-01-30T06:37:11;0.90;72.70
63017;DHT22;50274;45.640;11.756;2024-01-30T06:39:37;0.90;72.70
63017;DHT22;50274;45.640;11.756;2024-01-30T06:42:03;0.90;72.70
63017;DHT22;50274;45.640;11.756;2024-01-30T06:44:29;0.80;72.70
63017;DHT22;50274;45.640;11.756;2024-01-30T06:46:54;0.80;72.70
63017;DHT22;50274;45.640;11.756;2024-01-30T06:49:20;0.90;72.70
63017;DHT22;50274;45.640;11.756;2024-01-30T06:51:47;0.90;72.70
63017;DHT22;50274;45.640;11.756;2024-01-30T06:54:13;0.80;72.70
63017;DHT22;50274;45.640;11.756;2024-01-30T06:56:39;0.90;72.70
63017;DHT22;50274;45.640;11.756;2024-01-30T06:59:05;0.90;72.70
63017;DHT22;50274;45.640;11.756;2024-01-30T07:01:31;0.90;72.70
63017;DHT22;50274;45.640;11.756;2024-01-30T07:03:57;0.90;72.70
63017;DHT22;50274;45.640;11.756;2024-01-30T07:06:23;0.80;72.80
63017;DHT22;50274;45.640;11.756;2024-01-30T07:08:50;0.90;73.00
63017;DHT22;50274;45.640;11.756;2024-01-30T07:11:19;1.00;73.00
63017;DHT22;50274;45.640;11.756;2024-01-30T07:13:47;1.00;72.80
63017;DHT22;50274;45.640;11.756;2024-01-30T07:16:14;1.00;72.80
63017;DHT22;50274;45.640;11.756;2024-01-30T07:18:41;1.10;72.90
63017;DHT22;50274;45.640;11.756;2024-01-30T07:21:07;1.10;72.80
63017;DHT22;50274;45.640;11.756;2024-01-30T07:23:33;1.00;72.90
63017;DHT22;50274;45.640;11.756;2024-01-30T07:26:01;1.00;73.00
63017;DHT22;50274;45.640;11.756;2024-01-30T07:28:27;1.00;73.10
63017;DHT22;50274;45.640;11.756;2024-01-30T07:30:53;1.00;73.30
63017;DHT22;50274;45.640;11.756;2024-01-30T07:33:19;1.00;73.40
63017;DHT22;50274;45.640;11.756;2024-01-30T07:35:46;1.00;73.50
63017;DHT22;50274;45.640;11.756;2024-01-30T07:38:11;1.00;73.50
63017;DHT22;50274;45.640;11.756;2024-01-30T07:40:37;1.10;73.70
63017;DHT22;50274;45.640;11.756;2024-01-30T07:43:04;1.10;73.80
63017;DHT22;50274;45.640;11.756;2024-01-30T07:45:30;1.20;73.80
63017;DHT22;50274;45.640;11.756;2024-01-30T07:47:59;1.30;73.80
63017;DHT22;50274;45.640;11.756;2024-01-30T07:50:28;1.30;73.80
63017;DHT22;50274;45.640;11.756;2024-01-30T07:52:55;1.30;73.80
63017;DHT22;50274;45.640;11.756;2024-01-30T07:55:21;1.40;73.90
63017;DHT22;50274;45.640;11.756;2024-01-30T07:57:53;1.50;73.90
63017;DHT22;50274;45.640;11.756;2024-01-30T08:00:20;1.50;73.90
63017;DHT22;50274;45.640;11.756;2024-01-30T08:02:47;1.60;73.90
63017;DHT22;50274;45.640;11.756;2024-01-30T08:05:13;1.60;74.00
63017;DHT22;50274;45.640;11.756;2024-01-30T08:07:41;1.70;74.10
63017;DHT22;50274;45.640;11.756;2024-01-30T08:10:12;1.80;74.10
63017;DHT22;50274;45.640;11.756;2024-01-30T08:12:38;1.90;74.00
63017;DHT22;50274;45.640;11.756;2024-01-30T08:15:05;2.00;73.90
63017;DHT22;50274;45.640;11.756;2024-01-30T08:17:30;2.10;74.20
63017;DHT22;50274;45.640;11.756;2024-01-30T08:19:56;2.10;73.90
63017;DHT22;50274;45.640;11.756;2024-01-30T08:22:22;2.20;74.00
63017;DHT22;50274;45.640;11.756;2024-01-30T08:24:48;2.30;74.00
63017;DHT22;50274;45.640;11.756;2024-01-30T08:27:14;2.30;74.10
63017;DHT22;50274;45.640;11.756;2024-01-30T08:29:40;2.40;74.10
63017;DHT22;50274;45.640;11.756;2024-01-30T08:32:06;2.50;74.30
63017;DHT22;50274;45.640;11.756;2024-01-30T08:34:32;2.60;74.50
63017;DHT22;50274;45.640;11.756;2024-01-30T08:36:58;2.70;74.00
63017;DHT22;50274;45.640;11.756;2024-01-30T08:39:24;2.90;74.10
63017;DHT22;50274;45.640;11.756;2024-01-30T08:41:50;2.90;73.80
63017;DHT22;50274;45.640;11.756;2024-01-30T08:44:16;3.00;73.60
63017;DHT22;50274;45.640;11.756;2024-01-30T08:46:44;3.20;73.50
63017;DHT22;50274;45.640;11.756;2024-01-30T08:49:11;3.30;73.50
63017;DHT22;50274;45.640;11.756;2024-01-30T08:51:39;3.40;73.40
63017;DHT22;50274;45.640;11.756;2024-01-30T08:54:05;3.50;73.40
63017;DHT22;50274;45.640;11.756;2024-01-30T08:56:30;3.50;73.20
63017;DHT22;50274;45.640;11.756;2024-01-30T08:58:56;3.60;73.20
63017;DHT22;50274;45.640;11.756;2024-01-30T09:01:22;3.70;73.20
63017;DHT22;50274;45.640;11.756;2024-01-30T09:03:48;3.70;73.10
63017;DHT22;50274;45.640;11.756;2024-01-30T09:06:14;3.90;73.20
63017;DHT22;50274;45.640;11.756;2024-01-30T09:08:39;4.00;73.00
63017;DHT22;50274;45.640;11.756;2024-01-30T09:11:13;4.00;73.10
63017;DHT22;50274;45.640;11.756;2024-01-30T09:13:40;4.10;72.80
63017;DHT22;50274;45.640;11.756;2024-01-30T09:16:06;4.20;72.70
63017;DHT22;50274;45.640;11.756;2024-01-30T09:18:32;4.40;72.80
63017;DHT22;50274;45.640;11.756;2024-01-30T09:20:58;4.50;72.70
63017;DHT22;50274;45.640;11.756;2024-01-30T09:23:27;4.60;72.60
63017;DHT22;50274;45.640;11.756;2024-01-30T09:25:53;4.70;72.30
63017;DHT22;50274;45.640;11.756;2024-01-30T09:28:19;4.80;72.30
63017;DHT22;50274;45.640;11.756;2024-01-30T09:30:45;5.00;71.90
63017;DHT22;50274;45.640;11.756;2024-01-30T09:33:11;5.10;71.90
63017;DHT22;50274;45.640;11.756;2024-01-30T09:35:37;5.20;71.80
63017;DHT22;50274;45.640;11.756;2024-01-30T09:38:03;5.40;71.60
63017;DHT22;50274;45.640;11.756;2024-01-30T09:40:29;5.50;71.60
63017;DHT22;50274;45.640;11.756;2024-01-30T09:42:55;5.70;71.70
63017;DHT22;50274;45.640;11.756;2024-01-30T09:45:25;5.90;71.40
63017;DHT22;50274;45.640;11.756;2024-01-30T09:47:51;6.00;71.10
63017;DHT22;50274;45.640;11.756;2024-01-30T09:50:19;6.10;70.90
63017;DHT22;50274;45.640;11.756;2024-01-30T09:52:46;6.30;70.80
63017;DHT22;50274;45.640;11.756;2024-01-30T09:55:12;6.40;70.70
63017;DHT22;50274;45.640;11.756;2024-01-30T09:57:38;6.60;70.50
63017;DHT22;50274;45.640;11.756;2024-01-30T10:00:06;6.80;70.10
63017;DHT22;50274;45.640;11.756;2024-01-30T10:02:35;6.90;69.90
63017;DHT22;50274;45.640;11.756;2024-01-30T10:05:02;7.10;69.60
63017;DHT22;50274;45.640;11.756;2024-01-30T10:07:27;7.30;69.50
63017;DHT22;50274;45.640;11.756;2024-01-30T10:09:54;7.50;69.10
63017;DHT22;50274;45.640;11.756;2024-01-30T10:12:22;7.60;68.90
63017;DHT22;50274;45.640;11.756;2024-01-30T10:14:48;7.70;68.60
63017;DHT22;50274;45.640;11.756;2024-01-30T10:17:14;7.90;67.90
63017;DHT22;50274;45.640;11.756;2024-01-30T10:19:41;8.00;66.60
63017;DHT22;50274;45.640;11.756;2024-01-30T10:22:07;8.00;66.00
63017;DHT22;50274;45.640;11.756;2024-01-30T10:24:33;8.00;66.10
63017;DHT22;50274;45.640;11.756;2024-01-30T10:27:00;8.10;66.20
63017;DHT22;50274;45.640;11.756;2024-01-30T10:29:26;8.30;66.10
63017;DHT22;50274;45.640;11.756;2024-01-30T10:32:04;8.60;66.10
63017;DHT22;50274;45.640;11.756;2024-01-30T10:34:31;8.80;65.80
63017;DHT22;50274;45.640;11.756;2024-01-30T10:37:10;9.00;65.00
63017;DHT22;50274;45.640;11.756;2024-01-30T10:39:45;9.10;64.90
63017;DHT22;50274;45.640;11.756;2024-01-30T10:42:15;9.40;64.70
63017;DHT22;50274;45.640;11.756;2024-01-30T10:44:54;9.60;63.60
63017;DHT22;50274;45.640;11.756;2024-01-30T10:47:27;9.70;62.90
63017;DHT22;50274;45.640;11.756;2024-01-30T10:49:55;9.80;61.90
63017;DHT22;50274;45.640;11.756;2024-01-30T10:52:23;9.90;61.50
63017;DHT22;50274;45.640;11.756;2024-01-30T10:54:51;10.00;61.50
63017;DHT22;50274;45.640;11.756;2024-01-30T10:57:18;10.20;61.20
63017;DHT22;50274;45.640;11.756;2024-01-30T10:59:45;10.30;60.60
63017;DHT22;50274;45.640;11.756;2024-01-30T11:02:12;10.50;60.30
63017;DHT22;50274;45.640;11.756;2024-01-30T11:04:42;10.60;60.00
63017;DHT22;50274;45.640;11.756;2024-01-30T11:07:18;10.80;59.70
63017;DHT22;50274;45.640;11.756;2024-01-30T11:09:52;11.00;59.20
63017;DHT22;50274;45.640;11.756;2024-01-30T11:12:25;11.10;59.00
63017;DHT22;50274;45.640;11.756;2024-01-30T11:15:11;11.40;58.30
63017;DHT22;50274;45.640;11.756;2024-01-30T11:20:26;11.60;54.70
63017;DHT22;50274;45.640;11.756;2024-01-30T11:22:54;11.80;55.10
63017;DHT22;50274;45.640;11.756;2024-01-30T11:25:24;11.90;55.20
63017;DHT22;50274;45.640;11.756;2024-01-30T11:27:54;12.20;54.90
63017;DHT22;50274;45.640;11.756;2024-01-30T11:30:28;12.40;54.80
63017;DHT22;50274;45.640;11.756;2024-01-30T11:33:04;12.50;53.80
63017;DHT22;50274;45.640;11.756;2024-01-30T11:35:41;12.80;54.00
63017;DHT22;50274;45.640;11.756;2024-01-30T11:38:08;12.80;52.80
63017;DHT22;50274;45.640;11.756;2024-01-30T11:40:37;13.00;52.20
63017;DHT22;50274;45.640;11.756;2024-01-30T11:43:04;13.10;52.00
63017;DHT22;50274;45.640;11.756;2024-01-30T11:45:31;13.30;51.70
63017;DHT22;50274;45.640;11.756;2024-01-30T11:47:57;13.40;51.50
63017;DHT22;50274;45.640;11.756;2024-01-30T11:50:25;13.50;51.40
63017;DHT22;50274;45.640;11.756;2024-01-30T11:52:51;13.70;51.10
63017;DHT22;50274;45.640;11.756;2024-01-30T11:55:17;13.80;50.40
63017;DHT22;50274;45.640;11.756;2024-01-30T11:57:45;13.90;50.50
63017;DHT22;50274;45.640;11.756;2024-01-30T12:00:16;14.00;50.40
63017;DHT22;50274;45.640;11.756;2024-01-30T12:02:43;14.10;50.20
63017;DHT22;50274;45.640;11.756;2024-01-30T12:05:09;14.20;49.50
63017;DHT22;50274;45.640;11.756;2024-01-30T12:07:36;14.20;48.70
63017;DHT22;50274;45.640;11.756;2024-01-30T12:10:02;14.20;49.00
63017;DHT22;50274;45.640;11.756;2024-01-30T12:12:29;14.40;49.40
63017;DHT22;50274;45.640;11.756;2024-01-30T12:14:56;14.50;48.90
63017;DHT22;50274;45.640;11.756;2024-01-30T12:17:29;14.60;48.30
63017;DHT22;50274;45.640;11.756;2024-01-30T12:20:06;14.60;48.20
63017;DHT22;50274;45.640;11.756;2024-01-30T12:22:48;14.50;46.60
63017;DHT22;50274;45.640;11.756;2024-01-30T12:25:16;14.60;47.30
63017;DHT22;50274;45.640;11.756;2024-01-30T12:27:44;14.60;47.70
63017;DHT22;50274;45.640;11.756;2024-01-30T12:30:14;14.60;47.60
63017;DHT22;50274;45.640;11.756;2024-01-30T12:32:42;14.70;47.20
63017;DHT22;50274;45.640;11.756;2024-01-30T12:35:13;14.70;46.30
63017;DHT22;50274;45.640;11.756;2024-01-30T12:37:39;14.70;46.40
63017;DHT22;50274;45.640;11.756;2024-01-30T12:40:06;14.80;46.90
63017;DHT22;50274;45.640;11.756;2024-01-30T12:42:33;15.00;47.30
63017;DHT22;50274;45.640;11.756;2024-01-30T12:44:59;15.00;47.20
63017;DHT22;50274;45.640;11.756;2024-01-30T12:47:25;15.20;46.90
63017;DHT22;50274;45.640;11.756;2024-01-30T12:49:51;15.20;46.40
63017;DHT22;50274;45.640;11.756;2024-01-30T12:52:21;15.20;46.60
63017;DHT22;50274;45.640;11.756;2024-01-30T12:54:48;15.30;46.80
63017;DHT22;50274;45.640;11.756;2024-01-30T12:57:14;15.30;46.80
63017;DHT22;50274;45.640;11.756;2024-01-30T12:59:39;15.40;46.20
63017;DHT22;50274;45.640;11.756;2024-01-30T13:02:05;15.40;45.90
63017;DHT22;50274;45.640;11.756;2024-01-30T13:04:32;15.50;46.30
63017;DHT22;50274;45.640;11.756;2024-01-30T13:06:58;15.60;46.00
63017;DHT22;50274;45.640;11.756;2024-01-30T13:09:26;15.60;45.10
63017;DHT22;50274;45.640;11.756;2024-01-30T13:11:52;15.60;45.60
63017;DHT22;50274;45.640;11.756;2024-01-30T13:14:18;15.50;44.80
63017;DHT22;50274;45.640;11.756;2024-01-30T13:16:45;15.50;45.30
63017;DHT22;50274;45.640;11.756;2024-01-30T13:19:11;15.50;45.40
63017;DHT22;50274;45.640;11.756;2024-01-30T13:21:38;15.50;45.40
63017;DHT22;50274;45.640;11.756;2024-01-30T13:24:04;15.40;45.60
63017;DHT22;50274;45.640;11.756;2024-01-30T13:26:32;15.50;46.10
63017;DHT22;50274;45.640;11.756;2024-01-30T13:28:58;15.50;46.30
63017;DHT22;50274;45.640;11.756;2024-01-30T13:31:24;15.60;46.50
63017;DHT22;50274;45.640;11.756;2024-01-30T13:33:50;15.70;46.50
63017;DHT22;50274;45.640;11.756;2024-01-30T13:36:16;15.70;46.20
63017;DHT22;50274;45.640;11.756;2024-01-30T13:38:43;15.60;46.20
63017;DHT22;50274;45.640;11.756;2024-01-30T13:41:09;15.50;45.70
63017;DHT22;50274;45.640;11.756;2024-01-30T13:43:35;15.50;45.80
63017;DHT22;50274;45.640;11.756;2024-01-30T13:46:01;15.40;46.20
63017;DHT22;50274;45.640;11.756;2024-01-30T13:48:27;15.40;46.30
63017;DHT22;50274;45.640;11.756;2024-01-30T13:50:54;15.40;46.00
63017;DHT22;50274;45.640;11.756;2024-01-30T13:53:20;15.40;46.00
63017;DHT22;50274;45.640;11.756;2024-01-30T13:55:47;15.30;46.30
63017;DHT22;50274;45.640;11.756;2024-01-30T13:58:14;15.30;46.20
63017;DHT22;50274;45.640;11.756;2024-01-30T14:00:40;15.20;46.20
63017;DHT22;50274;45.640;11.756;2024-01-30T14:03:06;15.10;46.20
63017;DHT22;50274;45.640;11.756;2024-01-30T14:05:32;15.00;46.30
63017;DHT22;50274;45.640;11.756;2024-01-30T14:07:59;14.90;46.50
63017;DHT22;50274;45.640;11.756;2024-01-30T14:10:26;14.80;47.00
63017;DHT22;50274;45.640;11.756;2024-01-30T14:12:52;14.70;47.40
63017;DHT22;50274;45.640;11.756;2024-01-30T14:15:18;14.60;46.90
63017;DHT22;50274;45.640;11.756;2024-01-30T14:17:44;14.40;46.90
63017;DHT22;50274;45.640;11.756;2024-01-30T14:20:11;14.30;47.10
63017;DHT22;50274;45.640;11.756;2024-01-30T14:22:37;14.20;47.00
63017;DHT22;50274;45.640;11.756;2024-01-30T14:25:04;14.00;47.00
63017;DHT22;50274;45.640;11.756;2024-01-30T14:27:31;13.90;47.00
63017;DHT22;50274;45.640;11.756;2024-01-30T14:29:57;13.70;47.70
63017;DHT22;50274;45.640;11.756;2024-01-30T14:32:26;13.60;47.60
63017;DHT22;50274;45.640;11.756;2024-01-30T14:34:52;13.50;48.10
63017;DHT22;50274;45.640;11.756;2024-01-30T14:37:21;13.30;48.50
63017;DHT22;50274;45.640;11.756;2024-01-30T14:39:47;13.20;49.00
63017;DHT22;50274;45.640;11.756;2024-01-30T14:42:14;13.10;49.30
63017;DHT22;50274;45.640;11.756;2024-01-30T14:44:41;12.90;49.60
63017;DHT22;50274;45.640;11.756;2024-01-30T14:47:07;12.80;49.90
63017;DHT22;50274;45.640;11.756;2024-01-30T14:49:34;12.70;50.20
63017;DHT22;50274;45.640;11.756;2024-01-30T14:51:59;12.50;50.40
63017;DHT22;50274;45.640;11.756;2024-01-30T14:54:26;12.40;50.70
63017;DHT22;50274;45.640;11.756;2024-01-30T14:56:53;12.30;50.40
63017;DHT22;50274;45.640;11.756;2024-01-30T14:59:19;12.20;50.70
63017;DHT22;50274;45.640;11.756;2024-01-30T15:01:47;12.10;50.70
63017;DHT22;50274;45.640;11.756;2024-01-30T15:04:13;12.00;50.60
63017;DHT22;50274;45.640;11.756;2024-01-30T15:06:40;11.90;50.80
63017;DHT22;50274;45.640;11.756;2024-01-30T15:09:14;11.80;50.90
63017;DHT22;50274;45.640;11.756;2024-01-30T15:11:44;11.70;50.80
63017;DHT22;50274;45.640;11.756;2024-01-30T15:14:10;11.60;51.20
63017;DHT22;50274;45.640;11.756;2024-01-30T15:16:36;11.60;51.70
63017;DHT22;50274;45.640;11.756;2024-01-30T15:19:02;11.50;52.10
63017;DHT22;50274;45.640;11.756;2024-01-30T15:21:31;11.50;52.30
63017;DHT22;50274;45.640;11.756;2024-01-30T15:23:57;11.30;52.70
63017;DHT22;50274;45.640;11.756;2024-01-30T15:26:23;11.30;53.10
63017;DHT22;50274;45.640;11.756;2024-01-30T15:28:49;11.20;53.30